sensor_id;sensor_type;location;lat;lon;timestamp;P1;durP1;ratioP1;P2;durP2;ratioP2
12476;SDS011;6303;51.504;6.300;2023-01-13T00:00:37;0.60;;;0.60;;
12476;SDS011;6303;51.504;6.300;2023-01-13T00:03:04;1.55;;;0.50;;
12476;SDS011;6303;51.504;6.300;2023-01-13T00:05:32;1.02;;;0.50;;
12476;SDS011;6303;51.504;6.300;2023-01-13T00:07:59;1.38;;;0.40;;
12476;SDS011;6303;51.504;6.300;2023-01-13T00:10:30;1.48;;;0.52;;
12476;SDS011;6303;51.504;6.300;2023-01-13T00:12:57;0.85;;;0.47;;
12476;SDS011;6303;51.504;6.300;2023-01-13T00:15:24;1.48;;;0.70;;
12476;SDS011;6303;51.504;6.300;2023-01-13T00:17:51;0.63;;;0.63;;
12476;SDS011;6303;51.504;6.300;2023-01-13T00:20:18;1.27;;;0.50;;
12476;SDS011;6303;51.504;6.300;2023-01-13T00:22:45;0.73;;;0.55;;
12476;SDS011;6303;51.504;6.300;2023-01-13T00:25:13;2.63;;;0.70;;
12476;SDS011;6303;51.504;6.300;2023-01-13T00:27:41;1.10;;;0.50;;
12476;SDS011;6303;51.504;6.300;2023-01-13T00:30:09;1.63;;;0.60;;
12476;SDS011;6303;51.504;6.300;2023-01-13T00:32:36;0.57;;;0.57;;
12476;SDS011;6303;51.504;6.300;2023-01-13T00:35:04;0.60;;;0.60;;
12476;SDS011;6303;51.504;6.300;2023-01-13T00:37:33;1.13;;;1.02;;
12476;SDS011;6303;51.504;6.300;2023-01-13T00:40:01;0.73;;;0.50;;
12476;SDS011;6303;51.504;6.300;2023-01-13T00:42:29;0.70;;;0.45;;
12476;SDS011;6303;51.504;6.300;2023-01-13T00:45:14;0.50;;;0.50;;
12476;SDS011;6303;51.504;6.300;2023-01-13T00:47:41;1.58;;;0.77;;
12476;SDS011;6303;51.504;6.300;2023-01-13T00:50:09;0.85;;;0.63;;
12476;SDS011;6303;51.504;6.300;2023-01-13T00:52:36;1.50;;;0.60;;
12476;SDS011;6303;51.504;6.300;2023-01-13T00:55:03;1.40;;;0.50;;
12476;SDS011;6303;51.504;6.300;2023-01-13T00:57:31;1.30;;;0.80;;
12476;SDS011;6303;51.504;6.300;2023-01-13T00:59:59;0.95;;;0.60;;
12476;SDS011;6303;51.504;6.300;2023-01-13T01:02:27;1.02;;;0.60;;
12476;SDS011;6303;51.504;6.300;2023-01-13T01:04:54;1.60;;;0.60;;
12476;SDS011;6303;51.504;6.300;2023-01-13T01:07:21;1.35;;;0.73;;
12476;SDS011;6303;51.504;6.300;2023-01-13T01:09:48;0.90;;;0.73;;
12476;SDS011;6303;51.504;6.300;2023-01-13T01:12:15;1.35;;;0.82;;
12476;SDS011;6303;51.504;6.300;2023-01-13T01:14:42;1.00;;;0.70;;
12476;SDS011;6303;51.504;6.300;2023-01-13T01:17:09;0.75;;;0.60;;
12476;SDS011;6303;51.504;6.300;2023-01-13T01:19:38;2.08;;;0.70;;
12476;SDS011;6303;51.504;6.300;2023-01-13T01:22:05;0.88;;;0.70;;
12476;SDS011;6303;51.504;6.300;2023-01-13T01:24:32;1.27;;;0.85;;
12476;SDS011;6303;51.504;6.300;2023-01-13T01:26:59;1.40;;;0.70;;
12476;SDS011;6303;51.504;6.300;2023-01-13T01:29:26;1.55;;;0.60;;
12476;SDS011;6303;51.504;6.300;2023-01-13T01:31:53;2.40;;;0.70;;
12476;SDS011;6303;51.504;6.300;2023-01-13T01:34:22;1.17;;;0.75;;
12476;SDS011;6303;51.504;6.300;2023-01-13T01:36:50;1.75;;;0.80;;
12476;SDS011;6303;51.504;6.300;2023-01-13T01:39:17;1.13;;;0.80;;
12476;SDS011;6303;51.504;6.300;2023-01-13T01:41:44;2.05;;;0.90;;
12476;SDS011;6303;51.504;6.300;2023-01-13T01:47:25;1.50;;;1.00;;
12476;SDS011;6303;51.504;6.300;2023-01-13T01:49:54;1.30;;;0.77;;
12476;SDS011;6303;51.504;6.300;2023-01-13T01:52:25;0.93;;;0.70;;
12476;SDS011;6303;51.504;6.300;2023-01-13T01:54:56;1.60;;;0.80;;
12476;SDS011;6303;51.504;6.300;2023-01-13T01:57:26;1.52;;;0.95;;
12476;SDS011;6303;51.504;6.300;2023-01-13T01:59:56;1.38;;;0.73;;
12476;SDS011;6303;51.504;6.300;2023-01-13T02:02:25;1.92;;;0.90;;
12476;SDS011;6303;51.504;6.300;2023-01-13T02:04:53;1.27;;;0.70;;
12476;SDS011;6303;51.504;6.300;2023-01-13T02:07:21;3.53;;;1.13;;
12476;SDS011;6303;51.504;6.300;2023-01-13T02:09:52;1.80;;;0.93;;
12476;SDS011;6303;51.504;6.300;2023-01-13T02:12:20;2.17;;;0.63;;
12476;SDS011;6303;51.504;6.300;2023-01-13T02:14:54;2.03;;;1.00;;
12476;SDS011;6303;51.504;6.300;2023-01-13T02:17:24;1.55;;;0.80;;
12476;SDS011;6303;51.504;6.300;2023-01-13T02:26:27;2.70;;;1.00;;
12476;SDS011;6303;51.504;6.300;2023-01-13T02:29:11;1.80;;;0.98;;
12476;SDS011;6303;51.504;6.300;2023-01-13T02:32:05;2.03;;;0.77;;
12476;SDS011;6303;51.504;6.300;2023-01-13T02:34:39;1.75;;;0.85;;
12476;SDS011;6303;51.504;6.300;2023-01-13T02:37:12;1.25;;;0.85;;
12476;SDS011;6303;51.504;6.300;2023-01-13T02:39:44;3.38;;;1.08;;
12476;SDS011;6303;51.504;6.300;2023-01-13T02:42:17;1.63;;;0.90;;
12476;SDS011;6303;51.504;6.300;2023-01-13T02:45:10;1.50;;;1.00;;
12476;SDS011;6303;51.504;6.300;2023-01-13T02:47:41;1.35;;;0.80;;
12476;SDS011;6303;51.504;6.300;2023-01-13T02:50:15;2.40;;;1.00;;
12476;SDS011;6303;51.504;6.300;2023-01-13T02:52:44;1.48;;;0.73;;
12476;SDS011;6303;51.504;6.300;2023-01-13T02:55:17;2.28;;;1.10;;
12476;SDS011;6303;51.504;6.300;2023-01-13T02:57:47;1.95;;;0.80;;
12476;SDS011;6303;51.504;6.300;2023-01-13T03:00:18;2.45;;;1.02;;
12476;SDS011;6303;51.504;6.300;2023-01-13T03:02:46;2.45;;;1.23;;
12476;SDS011;6303;51.504;6.300;2023-01-13T03:05:13;2.65;;;1.20;;
12476;SDS011;6303;51.504;6.300;2023-01-13T03:07:53;3.17;;;1.02;;
12476;SDS011;6303;51.504;6.300;2023-01-13T03:10:40;1.50;;;0.98;;
12476;SDS011;6303;51.504;6.300;2023-01-13T03:13:20;2.22;;;0.93;;
12476;SDS011;6303;51.504;6.300;2023-01-13T03:16:02;2.40;;;1.08;;
12476;SDS011;6303;51.504;6.300;2023-01-13T03:18:39;3.15;;;1.20;;
12476;SDS011;6303;51.504;6.300;2023-01-13T03:21:12;2.88;;;1.20;;
12476;SDS011;6303;51.504;6.300;2023-01-13T03:23:46;2.88;;;1.20;;
12476;SDS011;6303;51.504;6.300;2023-01-13T03:26:17;1.98;;;1.20;;
12476;SDS011;6303;51.504;6.300;2023-01-13T03:28:51;2.03;;;1.13;;
12476;SDS011;6303;51.504;6.300;2023-01-13T03:31:26;2.50;;;1.20;;
12476;SDS011;6303;51.504;6.300;2023-01-13T03:33:57;2.10;;;1.10;;
12476;SDS011;6303;51.504;6.300;2023-01-13T03:36:29;2.45;;;1.10;;
12476;SDS011;6303;51.504;6.300;2023-01-13T03:39:00;3.08;;;1.27;;
12476;SDS011;6303;51.504;6.300;2023-01-13T03:41:32;2.92;;;1.20;;
12476;SDS011;6303;51.504;6.300;2023-01-13T03:44:04;1.88;;;1.10;;
12476;SDS011;6303;51.504;6.300;2023-01-13T03:46:51;2.97;;;1.05;;
12476;SDS011;6303;51.504;6.300;2023-01-13T03:49:28;2.63;;;1.00;;
12476;SDS011;6303;51.504;6.300;2023-01-13T03:52:00;1.95;;;1.10;;
12476;SDS011;6303;51.504;6.300;2023-01-13T03:54:34;2.40;;;1.08;;
12476;SDS011;6303;51.504;6.300;2023-01-13T03:57:06;2.97;;;1.20;;
12476;SDS011;6303;51.504;6.300;2023-01-13T03:59:36;2.65;;;1.10;;
12476;SDS011;6303;51.504;6.300;2023-01-13T04:02:09;2.70;;;1.10;;
12476;SDS011;6303;51.504;6.300;2023-01-13T04:04:41;2.95;;;1.20;;
12476;SDS011;6303;51.504;6.300;2023-01-13T04:07:14;2.22;;;1.10;;
12476;SDS011;6303;51.504;6.300;2023-01-13T04:09:49;2.05;;;1.00;;
12476;SDS011;6303;51.504;6.300;2023-01-13T04:12:21;2.80;;;1.10;;
12476;SDS011;6303;51.504;6.300;2023-01-13T04:14:52;2.60;;;0.93;;
12476;SDS011;6303;51.504;6.300;2023-01-13T04:17:21;2.05;;;1.20;;
12476;SDS011;6303;51.504;6.300;2023-01-13T04:19:48;1.92;;;1.10;;
12476;SDS011;6303;51.504;6.300;2023-01-13T04:22:15;3.17;;;1.30;;
12476;SDS011;6303;51.504;6.300;2023-01-13T04:24:42;2.42;;;1.10;;
12476;SDS011;6303;51.504;6.300;2023-01-13T04:27:09;2.65;;;0.90;;
12476;SDS011;6303;51.504;6.300;2023-01-13T04:29:36;2.08;;;0.90;;
12476;SDS011;6303;51.504;6.300;2023-01-13T04:32:03;2.08;;;0.93;;
12476;SDS011;6303;51.504;6.300;2023-01-13T04:34:32;2.05;;;1.10;;
12476;SDS011;6303;51.504;6.300;2023-01-13T04:36:59;3.65;;;1.02;;
12476;SDS011;6303;51.504;6.300;2023-01-13T04:39:26;3.42;;;1.10;;
12476;SDS011;6303;51.504;6.300;2023-01-13T04:41:53;1.25;;;0.95;;
12476;SDS011;6303;51.504;6.300;2023-01-13T04:44:22;3.03;;;1.17;;
12476;SDS011;6303;51.504;6.300;2023-01-13T04:46:50;2.42;;;1.00;;
12476;SDS011;6303;51.504;6.300;2023-01-13T04:49:17;1.55;;;0.98;;
12476;SDS011;6303;51.504;6.300;2023-01-13T04:51:45;2.40;;;1.10;;
12476;SDS011;6303;51.504;6.300;2023-01-13T04:54:12;1.98;;;1.10;;
12476;SDS011;6303;51.504;6.300;2023-01-13T04:56:40;2.25;;;1.10;;
12476;SDS011;6303;51.504;6.300;2023-01-13T04:59:07;1.45;;;1.00;;
12476;SDS011;6303;51.504;6.300;2023-01-13T05:01:35;2.30;;;1.10;;
12476;SDS011;6303;51.504;6.300;2023-01-13T05:04:02;1.63;;;0.90;;
12476;SDS011;6303;51.504;6.300;2023-01-13T05:06:29;3.08;;;1.23;;
12476;SDS011;6303;51.504;6.300;2023-01-13T05:08:58;2.88;;;1.10;;
12476;SDS011;6303;51.504;6.300;2023-01-13T05:11:25;2.80;;;1.13;;
12476;SDS011;6303;51.504;6.300;2023-01-13T05:14:09;2.47;;;1.02;;
12476;SDS011;6303;51.504;6.300;2023-01-13T05:16:54;4.00;;;0.95;;
12476;SDS011;6303;51.504;6.300;2023-01-13T05:19:28;3.83;;;1.20;;
12476;SDS011;6303;51.504;6.300;2023-01-13T05:21:56;6.60;;;1.58;;
12476;SDS011;6303;51.504;6.300;2023-01-13T05:24:43;2.67;;;1.15;;
12476;SDS011;6303;51.504;6.300;2023-01-13T05:27:27;4.18;;;1.38;;
12476;SDS011;6303;51.504;6.300;2023-01-13T05:29:55;11.02;;;2.22;;
12476;SDS011;6303;51.504;6.300;2023-01-13T05:32:22;8.27;;;2.08;;
12476;SDS011;6303;51.504;6.300;2023-01-13T05:34:52;6.72;;;1.77;;
12476;SDS011;6303;51.504;6.300;2023-01-13T05:37:20;8.07;;;1.50;;
12476;SDS011;6303;51.504;6.300;2023-01-13T05:39:49;10.40;;;1.50;;
12476;SDS011;6303;51.504;6.300;2023-01-13T05:42:33;8.77;;;1.70;;
12476;SDS011;6303;51.504;6.300;2023-01-13T05:45:18;6.63;;;1.83;;
12476;SDS011;6303;51.504;6.300;2023-01-13T05:47:45;6.75;;;1.50;;
12476;SDS011;6303;51.504;6.300;2023-01-13T05:50:12;5.18;;;1.67;;
12476;SDS011;6303;51.504;6.300;2023-01-13T05:52:39;9.98;;;1.60;;
12476;SDS011;6303;51.504;6.300;2023-01-13T05:55:09;5.32;;;1.50;;
12476;SDS011;6303;51.504;6.300;2023-01-13T05:57:36;4.68;;;1.33;;
12476;SDS011;6303;51.504;6.300;2023-01-13T06:00:04;3.35;;;1.50;;
12476;SDS011;6303;51.504;6.300;2023-01-13T06:02:36;2.30;;;1.20;;
12476;SDS011;6303;51.504;6.300;2023-01-13T06:05:04;4.28;;;1.48;;
12476;SDS011;6303;51.504;6.300;2023-01-13T06:07:31;3.95;;;1.20;;
12476;SDS011;6303;51.504;6.300;2023-01-13T06:09:58;3.00;;;1.17;;
12476;SDS011;6303;51.504;6.300;2023-01-13T06:12:26;4.63;;;1.30;;
12476;SDS011;6303;51.504;6.300;2023-01-13T06:14:53;5.07;;;1.30;;
12476;SDS011;6303;51.504;6.300;2023-01-13T06:17:20;4.13;;;1.20;;
12476;SDS011;6303;51.504;6.300;2023-01-13T06:19:47;8.75;;;1.60;;
12476;SDS011;6303;51.504;6.300;2023-01-13T06:22:16;3.63;;;1.13;;
12476;SDS011;6303;51.504;6.300;2023-01-13T06:24:47;4.22;;;1.60;;
12476;SDS011;6303;51.504;6.300;2023-01-13T06:27:15;4.80;;;1.75;;
12476;SDS011;6303;51.504;6.300;2023-01-13T06:29:45;4.45;;;1.80;;
12476;SDS011;6303;51.504;6.300;2023-01-13T06:32:14;5.07;;;1.58;;
12476;SDS011;6303;51.504;6.300;2023-01-13T06:34:44;7.70;;;1.38;;
12476;SDS011;6303;51.504;6.300;2023-01-13T06:37:16;5.72;;;1.40;;
12476;SDS011;6303;51.504;6.300;2023-01-13T06:39:49;4.85;;;1.48;;
12476;SDS011;6303;51.504;6.300;2023-01-13T06:42:19;4.43;;;1.35;;
12476;SDS011;6303;51.504;6.300;2023-01-13T06:45:05;5.18;;;1.30;;
12476;SDS011;6303;51.504;6.300;2023-01-13T06:47:33;4.57;;;1.70;;
12476;SDS011;6303;51.504;6.300;2023-01-13T06:50:00;5.15;;;1.40;;
12476;SDS011;6303;51.504;6.300;2023-01-13T06:52:27;2.67;;;1.33;;
12476;SDS011;6303;51.504;6.300;2023-01-13T06:54:54;4.82;;;1.40;;
12476;SDS011;6303;51.504;6.300;2023-01-13T06:57:21;5.30;;;1.33;;
12476;SDS011;6303;51.504;6.300;2023-01-13T06:59:48;4.80;;;1.33;;
12476;SDS011;6303;51.504;6.300;2023-01-13T07:02:17;4.30;;;1.17;;
12476;SDS011;6303;51.504;6.300;2023-01-13T07:04:44;3.67;;;1.27;;
12476;SDS011;6303;51.504;6.300;2023-01-13T07:07:11;4.63;;;1.60;;
12476;SDS011;6303;51.504;6.300;2023-01-13T07:09:39;3.08;;;1.27;;
12476;SDS011;6303;51.504;6.300;2023-01-13T07:12:06;3.83;;;1.48;;
12476;SDS011;6303;51.504;6.300;2023-01-13T07:14:34;2.85;;;1.17;;
12476;SDS011;6303;51.504;6.300;2023-01-13T07:17:20;2.67;;;1.17;;
12476;SDS011;6303;51.504;6.300;2023-01-13T07:19:49;3.42;;;1.40;;
12476;SDS011;6303;51.504;6.300;2023-01-13T07:22:16;3.50;;;1.15;;
12476;SDS011;6303;51.504;6.300;2023-01-13T07:24:43;3.10;;;1.30;;
12476;SDS011;6303;51.504;6.300;2023-01-13T07:27:10;3.30;;;1.42;;
12476;SDS011;6303;51.504;6.300;2023-01-13T07:29:37;2.38;;;1.15;;
12476;SDS011;6303;51.504;6.300;2023-01-13T07:32:05;3.03;;;1.35;;
12476;SDS011;6303;51.504;6.300;2023-01-13T07:34:33;3.55;;;1.30;;
12476;SDS011;6303;51.504;6.300;2023-01-13T07:37:00;3.47;;;1.20;;
12476;SDS011;6303;51.504;6.300;2023-01-13T07:39:27;3.40;;;1.38;;
12476;SDS011;6303;51.504;6.300;2023-01-13T07:41:54;2.88;;;1.00;;
12476;SDS011;6303;51.504;6.300;2023-01-13T07:44:39;3.10;;;1.27;;
12476;SDS011;6303;51.504;6.300;2023-01-13T07:47:06;3.47;;;1.05;;
12476;SDS011;6303;51.504;6.300;2023-01-13T07:49:36;2.10;;;0.93;;
12476;SDS011;6303;51.504;6.300;2023-01-13T07:52:03;5.25;;;1.27;;
12476;SDS011;6303;51.504;6.300;2023-01-13T07:54:31;3.22;;;1.20;;
12476;SDS011;6303;51.504;6.300;2023-01-13T07:56:58;2.95;;;1.38;;
12476;SDS011;6303;51.504;6.300;2023-01-13T07:59:25;3.30;;;1.23;;
12476;SDS011;6303;51.504;6.300;2023-01-13T08:01:52;3.22;;;1.10;;
12476;SDS011;6303;51.504;6.300;2023-01-13T08:04:19;1.65;;;0.90;;
12476;SDS011;6303;51.504;6.300;2023-01-13T08:06:47;2.63;;;1.00;;
12476;SDS011;6303;51.504;6.300;2023-01-13T08:09:14;4.15;;;1.10;;
12476;SDS011;6303;51.504;6.300;2023-01-13T08:11:41;3.30;;;1.25;;
12476;SDS011;6303;51.504;6.300;2023-01-13T08:14:29;2.67;;;0.90;;
12476;SDS011;6303;51.504;6.300;2023-01-13T08:16:56;3.13;;;1.13;;
12476;SDS011;6303;51.504;6.300;2023-01-13T08:19:23;1.83;;;0.80;;
12476;SDS011;6303;51.504;6.300;2023-01-13T08:21:52;1.90;;;1.20;;
12476;SDS011;6303;51.504;6.300;2023-01-13T08:24:19;3.05;;;1.20;;
12476;SDS011;6303;51.504;6.300;2023-01-13T08:26:46;2.03;;;1.10;;
12476;SDS011;6303;51.504;6.300;2023-01-13T08:29:13;2.53;;;1.20;;
12476;SDS011;6303;51.504;6.300;2023-01-13T08:31:40;2.65;;;1.10;;
12476;SDS011;6303;51.504;6.300;2023-01-13T08:34:07;1.13;;;0.98;;
12476;SDS011;6303;51.504;6.300;2023-01-13T08:36:34;2.40;;;1.20;;
12476;SDS011;6303;51.504;6.300;2023-01-13T08:39:02;2.30;;;1.08;;
12476;SDS011;6303;51.504;6.300;2023-01-13T08:41:29;2.05;;;0.80;;
12476;SDS011;6303;51.504;6.300;2023-01-13T08:44:14;2.75;;;1.00;;
12476;SDS011;6303;51.504;6.300;2023-01-13T08:46:41;1.73;;;0.90;;
12476;SDS011;6303;51.504;6.300;2023-01-13T08:49:08;1.83;;;0.80;;
12476;SDS011;6303;51.504;6.300;2023-01-13T08:51:35;2.65;;;1.23;;
12476;SDS011;6303;51.504;6.300;2023-01-13T08:54:03;2.75;;;1.10;;
12476;SDS011;6303;51.504;6.300;2023-01-13T08:56:30;3.20;;;1.08;;
12476;SDS011;6303;51.504;6.300;2023-01-13T08:58:58;2.65;;;0.95;;
12476;SDS011;6303;51.504;6.300;2023-01-13T09:01:26;1.88;;;0.98;;
12476;SDS011;6303;51.504;6.300;2023-01-13T09:03:53;2.58;;;1.00;;
12476;SDS011;6303;51.504;6.300;2023-01-13T09:06:20;4.15;;;1.35;;
12476;SDS011;6303;51.504;6.300;2023-01-13T09:08:47;3.28;;;1.08;;
12476;SDS011;6303;51.504;6.300;2023-01-13T09:11:16;2.10;;;1.00;;
12476;SDS011;6303;51.504;6.300;2023-01-13T09:14:02;5.40;;;1.33;;
12476;SDS011;6303;51.504;6.300;2023-01-13T09:16:29;4.15;;;1.33;;
12476;SDS011;6303;51.504;6.300;2023-01-13T09:18:56;2.35;;;1.30;;
12476;SDS011;6303;51.504;6.300;2023-01-13T09:21:23;3.60;;;1.30;;
12476;SDS011;6303;51.504;6.300;2023-01-13T09:23:51;3.33;;;1.17;;
12476;SDS011;6303;51.504;6.300;2023-01-13T09:26:19;2.85;;;1.33;;
12476;SDS011;6303;51.504;6.300;2023-01-13T09:28:47;2.58;;;1.25;;
12476;SDS011;6303;51.504;6.300;2023-01-13T09:31:14;3.78;;;1.30;;
12476;SDS011;6303;51.504;6.300;2023-01-13T09:33:41;2.88;;;1.55;;
12476;SDS011;6303;51.504;6.300;2023-01-13T09:36:25;2.40;;;1.00;;
12476;SDS011;6303;51.504;6.300;2023-01-13T09:38:52;2.28;;;1.20;;
12476;SDS011;6303;51.504;6.300;2023-01-13T09:41:21;3.22;;;1.30;;
12476;SDS011;6303;51.504;6.300;2023-01-13T09:44:08;2.90;;;1.08;;
12476;SDS011;6303;51.504;6.300;2023-01-13T09:46:40;2.53;;;1.13;;
12476;SDS011;6303;51.504;6.300;2023-01-13T09:49:13;1.85;;;1.00;;
12476;SDS011;6303;51.504;6.300;2023-01-13T09:51:47;2.95;;;1.27;;
12476;SDS011;6303;51.504;6.300;2023-01-13T09:54:21;3.58;;;1.30;;
12476;SDS011;6303;51.504;6.300;2023-01-13T09:56:58;2.30;;;1.20;;
12476;SDS011;6303;51.504;6.300;2023-01-13T09:59:25;1.65;;;1.20;;
12476;SDS011;6303;51.504;6.300;2023-01-13T10:01:55;4.30;;;1.23;;
12476;SDS011;6303;51.504;6.300;2023-01-13T10:04:27;3.05;;;1.40;;
12476;SDS011;6303;51.504;6.300;2023-01-13T10:06:55;3.63;;;1.20;;
12476;SDS011;6303;51.504;6.300;2023-01-13T10:09:29;3.17;;;1.40;;
12476;SDS011;6303;51.504;6.300;2023-01-13T10:12:00;2.55;;;1.30;;
12476;SDS011;6303;51.504;6.300;2023-01-13T10:14:49;1.73;;;1.20;;
12476;SDS011;6303;51.504;6.300;2023-01-13T10:17:20;2.55;;;1.30;;
12476;SDS011;6303;51.504;6.300;2023-01-13T10:19:54;3.20;;;1.50;;
12476;SDS011;6303;51.504;6.300;2023-01-13T10:25:21;1.70;;;0.90;;
12476;SDS011;6303;51.504;6.300;2023-01-13T10:28:00;2.33;;;1.17;;
12476;SDS011;6303;51.504;6.300;2023-01-13T10:30:33;2.25;;;1.30;;
12476;SDS011;6303;51.504;6.300;2023-01-13T10:33:07;2.65;;;1.20;;
12476;SDS011;6303;51.504;6.300;2023-01-13T10:35:54;3.38;;;1.42;;
12476;SDS011;6303;51.504;6.300;2023-01-13T10:38:23;2.47;;;1.17;;
12476;SDS011;6303;51.504;6.300;2023-01-13T10:40:54;3.22;;;1.30;;
12476;SDS011;6303;51.504;6.300;2023-01-13T10:43:24;3.35;;;1.30;;
12476;SDS011;6303;51.504;6.300;2023-01-13T10:45:57;2.40;;;1.20;;
12476;SDS011;6303;51.504;6.300;2023-01-13T10:48:36;2.50;;;1.15;;
12476;SDS011;6303;51.504;6.300;2023-01-13T10:51:14;4.53;;;1.50;;
12476;SDS011;6303;51.504;6.300;2023-01-13T10:53:45;3.72;;;1.33;;
12476;SDS011;6303;51.504;6.300;2023-01-13T10:56:18;2.85;;;1.30;;
12476;SDS011;6303;51.504;6.300;2023-01-13T10:58:47;3.70;;;1.25;;
12476;SDS011;6303;51.504;6.300;2023-01-13T11:01:22;2.35;;;1.17;;
12476;SDS011;6303;51.504;6.300;2023-01-13T11:03:51;3.80;;;1.42;;
12476;SDS011;6303;51.504;6.300;2023-01-13T11:06:20;2.22;;;1.20;;
12476;SDS011;6303;51.504;6.300;2023-01-13T11:08:49;4.90;;;1.38;;
12476;SDS011;6303;51.504;6.300;2023-01-13T11:11:27;2.95;;;1.27;;
12476;SDS011;6303;51.504;6.300;2023-01-13T11:14:06;3.10;;;1.45;;
12476;SDS011;6303;51.504;6.300;2023-01-13T11:17:02;3.95;;;1.30;;
12476;SDS011;6303;51.504;6.300;2023-01-13T11:19:36;2.30;;;1.10;;
12476;SDS011;6303;51.504;6.300;2023-01-13T11:22:06;3.25;;;1.38;;
12476;SDS011;6303;51.504;6.300;2023-01-13T11:24:38;4.35;;;1.48;;
12476;SDS011;6303;51.504;6.300;2023-01-13T11:27:11;3.22;;;1.33;;
12476;SDS011;6303;51.504;6.300;2023-01-13T11:29:44;2.42;;;1.40;;
12476;SDS011;6303;51.504;6.300;2023-01-13T11:32:24;2.00;;;1.20;;
12476;SDS011;6303;51.504;6.300;2023-01-13T11:34:56;3.28;;;1.25;;
12476;SDS011;6303;51.504;6.300;2023-01-13T11:37:27;2.85;;;1.23;;
12476;SDS011;6303;51.504;6.300;2023-01-13T11:39:59;3.10;;;1.30;;
12476;SDS011;6303;51.504;6.300;2023-01-13T11:42:31;2.88;;;1.35;;
12476;SDS011;6303;51.504;6.300;2023-01-13T11:45:06;2.38;;;1.13;;
12476;SDS011;6303;51.504;6.300;2023-01-13T11:47:42;2.55;;;1.20;;
12476;SDS011;6303;51.504;6.300;2023-01-13T11:50:13;3.45;;;1.10;;
12476;SDS011;6303;51.504;6.300;2023-01-13T11:52:54;3.38;;;1.40;;
12476;SDS011;6303;51.504;6.300;2023-01-13T11:55:47;2.95;;;1.38;;
12476;SDS011;6303;51.504;6.300;2023-01-13T11:58:30;1.92;;;1.20;;
12476;SDS011;6303;51.504;6.300;2023-01-13T12:01:22;4.13;;;1.33;;
12476;SDS011;6303;51.504;6.300;2023-01-13T12:04:01;2.65;;;1.30;;
12476;SDS011;6303;51.504;6.300;2023-01-13T12:06:41;2.13;;;1.27;;
12476;SDS011;6303;51.504;6.300;2023-01-13T12:09:16;2.65;;;1.20;;
12476;SDS011;6303;51.504;6.300;2023-01-13T12:12:02;2.22;;;1.20;;
12476;SDS011;6303;51.504;6.300;2023-01-13T12:14:56;2.20;;;1.10;;
12476;SDS011;6303;51.504;6.300;2023-01-13T12:17:51;2.47;;;1.08;;
12476;SDS011;6303;51.504;6.300;2023-01-13T12:20:33;2.63;;;1.20;;
12476;SDS011;6303;51.504;6.300;2023-01-13T12:23:10;2.85;;;1.30;;
12476;SDS011;6303;51.504;6.300;2023-01-13T12:25:48;3.17;;;1.30;;
12476;SDS011;6303;51.504;6.300;2023-01-13T12:28:20;1.13;;;0.90;;
12476;SDS011;6303;51.504;6.300;2023-01-13T12:30:52;2.72;;;1.10;;
12476;SDS011;6303;51.504;6.300;2023-01-13T12:33:27;2.42;;;1.20;;
12476;SDS011;6303;51.504;6.300;2023-01-13T12:36:11;2.60;;;1.20;;
12476;SDS011;6303;51.504;6.300;2023-01-13T12:38:44;2.53;;;1.02;;
12476;SDS011;6303;51.504;6.300;2023-01-13T12:41:15;2.13;;;1.33;;
12476;SDS011;6303;51.504;6.300;2023-01-13T12:43:55;2.53;;;1.00;;
12476;SDS011;6303;51.504;6.300;2023-01-13T12:46:44;2.45;;;1.23;;
12476;SDS011;6303;51.504;6.300;2023-01-13T12:49:25;2.17;;;1.20;;
12476;SDS011;6303;51.504;6.300;2023-01-13T12:52:03;3.05;;;1.20;;
12476;SDS011;6303;51.504;6.300;2023-01-13T12:57:37;2.65;;;1.15;;
12476;SDS011;6303;51.504;6.300;2023-01-13T13:00:14;2.67;;;1.20;;
12476;SDS011;6303;51.504;6.300;2023-01-13T13:02:42;1.55;;;1.10;;
12476;SDS011;6303;51.504;6.300;2023-01-13T13:05:53;1.40;;;1.00;;
12476;SDS011;6303;51.504;6.300;2023-01-13T13:08:56;2.55;;;1.10;;
12476;SDS011;6303;51.504;6.300;2023-01-13T13:11:40;2.80;;;1.10;;
12476;SDS011;6303;51.504;6.300;2023-01-13T13:17:38;2.70;;;1.30;;
12476;SDS011;6303;51.504;6.300;2023-01-13T13:20:50;3.10;;;1.33;;
12476;SDS011;6303;51.504;6.300;2023-01-13T13:32:02;2.90;;;1.17;;
12476;SDS011;6303;51.504;6.300;2023-01-13T13:34:52;3.10;;;1.27;;
12476;SDS011;6303;51.504;6.300;2023-01-13T13:37:40;2.85;;;1.27;;
12476;SDS011;6303;51.504;6.300;2023-01-13T13:40:38;3.28;;;1.30;;
12476;SDS011;6303;51.504;6.300;2023-01-13T13:43:23;1.83;;;1.10;;
12476;SDS011;6303;51.504;6.300;2023-01-13T13:46:20;2.88;;;1.10;;
12476;SDS011;6303;51.504;6.300;2023-01-13T13:49:07;2.72;;;1.27;;
12476;SDS011;6303;51.504;6.300;2023-01-13T13:51:37;2.00;;;1.02;;
12476;SDS011;6303;51.504;6.300;2023-01-13T13:54:10;1.83;;;1.20;;
12476;SDS011;6303;51.504;6.300;2023-01-13T13:56:43;3.25;;;1.42;;
12476;SDS011;6303;51.504;6.300;2023-01-13T13:59:11;2.80;;;1.20;;
12476;SDS011;6303;51.504;6.300;2023-01-13T14:01:42;2.53;;;1.13;;
12476;SDS011;6303;51.504;6.300;2023-01-13T14:04:13;2.20;;;1.02;;
12476;SDS011;6303;51.504;6.300;2023-01-13T14:06:53;1.67;;;1.10;;
12476;SDS011;6303;51.504;6.300;2023-01-13T14:09:22;2.25;;;1.02;;
12476;SDS011;6303;51.504;6.300;2023-01-13T14:11:58;2.78;;;1.25;;
12476;SDS011;6303;51.504;6.300;2023-01-13T14:14:27;2.97;;;1.33;;
12476;SDS011;6303;51.504;6.300;2023-01-13T14:16:54;2.45;;;1.25;;
12476;SDS011;6303;51.504;6.300;2023-01-13T14:19:24;2.15;;;1.05;;
12476;SDS011;6303;51.504;6.300;2023-01-13T14:21:56;3.65;;;1.30;;
12476;SDS011;6303;51.504;6.300;2023-01-13T14:24:24;1.73;;;1.10;;
12476;SDS011;6303;51.504;6.300;2023-01-13T14:26:52;2.00;;;1.20;;
12476;SDS011;6303;51.504;6.300;2023-01-13T14:29:33;1.27;;;0.82;;
12476;SDS011;6303;51.504;6.300;2023-01-13T14:32:01;1.85;;;1.20;;
12476;SDS011;6303;51.504;6.300;2023-01-13T14:34:30;2.25;;;1.10;;
12476;SDS011;6303;51.504;6.300;2023-01-13T14:36:59;1.60;;;1.20;;
12476;SDS011;6303;51.504;6.300;2023-01-13T14:39:34;2.42;;;1.10;;
12476;SDS011;6303;51.504;6.300;2023-01-13T14:42:02;1.90;;;1.20;;
12476;SDS011;6303;51.504;6.300;2023-01-13T14:44:30;1.98;;;1.05;;
12476;SDS011;6303;51.504;6.300;2023-01-13T14:47:02;1.95;;;1.15;;
12476;SDS011;6303;51.504;6.300;2023-01-13T14:49:49;2.58;;;1.20;;
12476;SDS011;6303;51.504;6.300;2023-01-13T14:52:22;2.53;;;0.98;;
12476;SDS011;6303;51.504;6.300;2023-01-13T14:54:52;2.53;;;1.17;;
12476;SDS011;6303;51.504;6.300;2023-01-13T14:57:37;2.80;;;1.10;;
12476;SDS011;6303;51.504;6.300;2023-01-13T15:00:18;2.65;;;1.10;;
12476;SDS011;6303;51.504;6.300;2023-01-13T15:02:48;2.05;;;1.00;;
12476;SDS011;6303;51.504;6.300;2023-01-13T15:05:29;3.03;;;0.90;;
12476;SDS011;6303;51.504;6.300;2023-01-13T15:08:31;1.13;;;0.90;;
12476;SDS011;6303;51.504;6.300;2023-01-13T15:11:02;1.77;;;0.85;;
12476;SDS011;6303;51.504;6.300;2023-01-13T15:13:33;2.53;;;1.05;;
12476;SDS011;6303;51.504;6.300;2023-01-13T15:16:07;1.83;;;1.08;;
12476;SDS011;6303;51.504;6.300;2023-01-13T15:18:41;2.42;;;1.10;;
12476;SDS011;6303;51.504;6.300;2023-01-13T15:21:08;3.13;;;1.45;;
12476;SDS011;6303;51.504;6.300;2023-01-13T15:23:36;1.95;;;0.98;;
12476;SDS011;6303;51.504;6.300;2023-01-13T15:26:12;2.20;;;1.00;;
12476;SDS011;6303;51.504;6.300;2023-01-13T15:28:46;3.10;;;1.02;;
12476;SDS011;6303;51.504;6.300;2023-01-13T15:31:15;3.45;;;1.30;;
12476;SDS011;6303;51.504;6.300;2023-01-13T15:33:42;1.55;;;0.98;;
12476;SDS011;6303;51.504;6.300;2023-01-13T15:36:16;2.13;;;1.13;;
12476;SDS011;6303;51.504;6.300;2023-01-13T15:38:49;3.35;;;1.13;;
12476;SDS011;6303;51.504;6.300;2023-01-13T15:41:17;3.38;;;1.23;;
12476;SDS011;6303;51.504;6.300;2023-01-13T15:44:05;1.67;;;1.05;;
12476;SDS011;6303;51.504;6.300;2023-01-13T15:46:50;2.20;;;1.10;;
12476;SDS011;6303;51.504;6.300;2023-01-13T15:49:19;2.10;;;0.95;;
12476;SDS011;6303;51.504;6.300;2023-01-13T15:51:52;4.10;;;1.10;;
12476;SDS011;6303;51.504;6.300;2023-01-13T15:54:19;4.18;;;1.40;;
12476;SDS011;6303;51.504;6.300;2023-01-13T15:56:48;2.03;;;1.10;;
12476;SDS011;6303;51.504;6.300;2023-01-13T15:59:16;1.92;;;0.98;;